createdAt,value
2023-05-21T00:01:47.840Z,20.30
2023-05-21T00:16:47.870Z,19.00
2023-05-21T00:31:47.607Z,18.50
2023-05-21T00:46:47.381Z,18.30
2023-05-21T01:01:47.239Z,22.40
2023-05-21T01:16:47.146Z,21.50
2023-05-21T01:31:46.877Z,19.00
2023-05-21T01:46:46.867Z,19.80
2023-05-21T02:01:46.594Z,20.00
2023-05-21T02:16:46.409Z,22.70
2023-05-21T02:31:46.240Z,22.30
2023-05-21T02:46:46.051Z,25.50
2023-05-21T03:01:45.931Z,23.70
2023-05-21T03:16:45.766Z,27.70
2023-05-21T03:31:45.666Z,25.30
2023-05-21T03:46:45.505Z,27.50
2023-05-21T04:01:45.277Z,31.60
2023-05-21T04:16:45.085Z,38.30
2023-05-21T04:31:45.005Z,37.50
2023-05-21T04:46:44.842Z,33.90
2023-05-21T05:01:44.613Z,34.00
2023-05-21T05:16:44.496Z,30.30
2023-05-21T05:31:44.283Z,30.00
2023-05-21T05:46:44.176Z,28.60
2023-05-21T06:01:43.966Z,26.40
2023-05-21T06:16:43.818Z,24.20
2023-05-21T06:31:43.652Z,21.10
2023-05-21T06:46:43.484Z,23.40
2023-05-21T07:01:43.444Z,21.20
2023-05-21T07:16:43.184Z,20.70
2023-05-21T07:31:43.069Z,17.90
2023-05-21T07:46:43.135Z,17.10
2023-05-21T08:01:42.687Z,16.50
2023-05-21T08:16:42.630Z,17.10
2023-05-21T08:31:42.527Z,13.30
2023-05-21T08:46:42.260Z,13.10
2023-05-21T09:01:42.168Z,12.40
2023-05-21T09:16:41.967Z,11.50
2023-05-21T09:31:42.933Z,11.60
2023-05-21T09:46:42.142Z,10.40
2023-05-21T10:01:41.445Z,12.40
2023-05-21T10:16:41.465Z,11.70
2023-05-21T10:31:41.120Z,12.40
2023-05-21T10:46:40.946Z,10.40
2023-05-21T11:01:40.980Z,8.10
2023-05-21T11:16:40.903Z,10.20
2023-05-21T11:31:40.618Z,10.20
2023-05-21T11:46:40.447Z,10.50
2023-05-21T12:01:40.176Z,8.20
2023-05-21T12:16:40.250Z,8.00
2023-05-21T12:31:39.941Z,11.20
2023-05-21T12:46:39.867Z,10.70
2023-05-21T13:01:39.640Z,7.30
2023-05-21T13:16:39.382Z,10.90
2023-05-21T13:31:39.298Z,7.80
2023-05-21T13:46:39.198Z,7.90
2023-05-21T14:01:38.899Z,8.00
2023-05-21T14:16:38.814Z,8.90
2023-05-21T14:31:38.696Z,6.40
2023-05-21T14:46:38.585Z,8.10
2023-05-21T15:01:38.349Z,7.10
2023-05-21T15:16:39.171Z,8.10
2023-05-21T15:31:38.036Z,8.30
2023-05-21T15:46:37.852Z,9.10
2023-05-21T16:01:37.639Z,6.20
2023-05-21T16:16:37.536Z,8.50
2023-05-21T16:31:37.354Z,6.60
2023-05-21T16:46:37.268Z,6.30
2023-05-21T17:01:37.124Z,8.30
2023-05-21T17:16:36.970Z,9.30
2023-05-21T17:31:36.783Z,7.80
2023-05-21T17:46:36.588Z,6.80
2023-05-21T18:01:36.467Z,8.60
2023-05-21T18:16:37.344Z,8.00
2023-05-21T18:31:36.099Z,8.20
2023-05-21T18:46:35.931Z,7.80
2023-05-21T19:01:35.832Z,6.90
2023-05-21T19:16:35.734Z,6.60
2023-05-21T19:31:35.417Z,9.50
2023-05-21T19:46:35.313Z,7.40
2023-05-21T20:01:35.160Z,7.60
2023-05-21T20:16:36.815Z,7.90
2023-05-21T20:31:34.914Z,6.40
2023-05-21T20:46:34.669Z,7.10
2023-05-21T21:01:34.509Z,9.60
2023-05-21T21:16:34.392Z,7.60
2023-05-21T21:31:36.540Z,8.80
2023-05-21T21:46:34.117Z,7.00
2023-05-21T22:01:34.050Z,7.70
2023-05-21T22:16:33.709Z,6.50
2023-05-21T22:31:33.648Z,7.00
2023-05-21T22:46:33.400Z,6.40
2023-05-21T23:01:33.297Z,7.90
2023-05-21T23:16:33.080Z,7.60
2023-05-21T23:31:32.947Z,6.40
2023-05-21T23:46:32.733Z,8.10
